sensor_id;sensor_type;location;lat;lon;timestamp;pressure;altitude;pressure_sealevel;temperature;humidity
13581;BME280;6861;46.170;7.222;2023-02-16T00:01:17;97217.75;;;7.41;46.12
13581;BME280;6861;46.170;7.222;2023-02-16T00:03:46;97220.78;;;7.38;46.68
13581;BME280;6861;46.170;7.222;2023-02-16T00:06:14;97216.47;;;7.25;47.23
13581;BME280;6861;46.170;7.222;2023-02-16T00:08:43;97217.53;;;7.17;47.14
13581;BME280;6861;46.170;7.222;2023-02-16T00:11:17;97215.41;;;7.08;47.64
13581;BME280;6861;46.170;7.222;2023-02-16T00:14:06;97212.03;;;7.01;46.44
13581;BME280;6861;46.170;7.222;2023-02-16T00:16:35;97217.84;;;7.03;46.41
13581;BME280;6861;46.170;7.222;2023-02-16T00:19:15;97223.47;;;7.00;46.39
13581;BME280;6861;46.170;7.222;2023-02-16T00:21:44;97225.53;;;6.91;47.23
13581;BME280;6861;46.170;7.222;2023-02-16T00:24:12;97221.19;;;6.85;47.56
13581;BME280;6861;46.170;7.222;2023-02-16T00:26:42;97218.03;;;6.76;47.48
13581;BME280;6861;46.170;7.222;2023-02-16T00:29:14;97224.88;;;6.71;47.15
13581;BME280;6861;46.170;7.222;2023-02-16T00:31:43;97223.34;;;6.56;48.54
13581;BME280;6861;46.170;7.222;2023-02-16T00:34:24;97224.16;;;6.50;47.84
13581;BME280;6861;46.170;7.222;2023-02-16T00:36:53;97217.78;;;6.46;48.50
13581;BME280;6861;46.170;7.222;2023-02-16T00:39:22;97217.41;;;6.43;48.87
13581;BME280;6861;46.170;7.222;2023-02-16T00:41:55;97218.59;;;6.40;47.98
13581;BME280;6861;46.170;7.222;2023-02-16T00:44:29;97220.63;;;6.38;48.17
13581;BME280;6861;46.170;7.222;2023-02-16T00:47:00;97213.44;;;6.34;49.02
13581;BME280;6861;46.170;7.222;2023-02-16T00:49:29;97204.66;;;6.28;48.70
13581;BME280;6861;46.170;7.222;2023-02-16T00:51:57;97215.84;;;6.35;48.26
13581;BME280;6861;46.170;7.222;2023-02-16T00:54:25;97218.44;;;6.35;48.63
13581;BME280;6861;46.170;7.222;2023-02-16T00:56:57;97220.25;;;6.28;48.49
13581;BME280;6861;46.170;7.222;2023-02-16T00:59:25;97221.84;;;6.29;48.37
13581;BME280;6861;46.170;7.222;2023-02-16T01:01:53;97220.22;;;6.35;48.38
13581;BME280;6861;46.170;7.222;2023-02-16T01:04:23;97211.81;;;6.39;48.27
13581;BME280;6861;46.170;7.222;2023-02-16T01:06:51;97220.97;;;6.48;48.66
13581;BME280;6861;46.170;7.222;2023-02-16T01:09:35;97227.78;;;6.49;47.79
13581;BME280;6861;46.170;7.222;2023-02-16T01:12:22;97218.97;;;6.50;48.60
13581;BME280;6861;46.170;7.222;2023-02-16T01:14:53;97220.56;;;6.51;48.62
13581;BME280;6861;46.170;7.222;2023-02-16T01:17:23;97214.16;;;6.54;47.67
13581;BME280;6861;46.170;7.222;2023-02-16T01:19:51;97219.72;;;6.57;48.06
13581;BME280;6861;46.170;7.222;2023-02-16T01:22:19;97219.72;;;6.57;48.00
13581;BME280;6861;46.170;7.222;2023-02-16T01:24:47;97221.31;;;6.58;47.58
13581;BME280;6861;46.170;7.222;2023-02-16T01:27:15;97219.09;;;6.62;47.74
13581;BME280;6861;46.170;7.222;2023-02-16T01:29:44;97205.91;;;6.64;48.15
13581;BME280;6861;46.170;7.222;2023-02-16T01:32:12;97200.97;;;6.49;47.47
13581;BME280;6861;46.170;7.222;2023-02-16T01:34:41;97206.03;;;6.37;47.79
13581;BME280;6861;46.170;7.222;2023-02-16T01:37:14;97202.69;;;6.23;48.10
13581;BME280;6861;46.170;7.222;2023-02-16T01:39:43;97204.66;;;6.28;48.43
13581;BME280;6861;46.170;7.222;2023-02-16T01:45:07;97199.44;;;6.35;48.63
13581;BME280;6861;46.170;7.222;2023-02-16T01:47:39;97198.22;;;6.37;48.55
13581;BME280;6861;46.170;7.222;2023-02-16T01:50:15;97193.19;;;6.42;48.69
13581;BME280;6861;46.170;7.222;2023-02-16T01:52:44;97191.16;;;6.51;47.90
13581;BME280;6861;46.170;7.222;2023-02-16T01:55:18;97190.53;;;6.55;48.22
13581;BME280;6861;46.170;7.222;2023-02-16T01:57:49;97184.16;;;6.51;48.23
13581;BME280;6861;46.170;7.222;2023-02-16T02:00:27;97191.38;;;6.49;48.19
13581;BME280;6861;46.170;7.222;2023-02-16T02:02:57;97177.59;;;6.42;48.48
13581;BME280;6861;46.170;7.222;2023-02-16T02:05:47;97183.81;;;6.41;47.95
13581;BME280;6861;46.170;7.222;2023-02-16T02:08:21;97183.03;;;6.34;48.31
13581;BME280;6861;46.170;7.222;2023-02-16T02:11:06;97182.72;;;6.17;48.13
13581;BME280;6861;46.170;7.222;2023-02-16T02:13:39;97182.63;;;5.93;48.88
13581;BME280;6861;46.170;7.222;2023-02-16T02:16:11;97177.25;;;5.74;49.54
13581;BME280;6861;46.170;7.222;2023-02-16T02:18:43;97184.09;;;5.49;50.08
13581;BME280;6861;46.170;7.222;2023-02-16T02:21:41;97177.53;;;5.33;50.55
13581;BME280;6861;46.170;7.222;2023-02-16T02:24:57;97189.69;;;5.33;50.25
13581;BME280;6861;46.170;7.222;2023-02-16T02:27:30;97184.50;;;5.33;50.41
13581;BME280;6861;46.170;7.222;2023-02-16T02:30:10;97180.13;;;5.40;50.20
13581;BME280;6861;46.170;7.222;2023-02-16T02:33:06;97179.72;;;5.43;49.81
13581;BME280;6861;46.170;7.222;2023-02-16T02:35:47;97181.50;;;5.42;49.66
13581;BME280;6861;46.170;7.222;2023-02-16T02:38:23;97170.53;;;5.47;49.93
13581;BME280;6861;46.170;7.222;2023-02-16T02:40:57;97175.91;;;5.52;49.95
13581;BME280;6861;46.170;7.222;2023-02-16T02:43:31;97170.72;;;5.45;49.81
13581;BME280;6861;46.170;7.222;2023-02-16T02:46:07;97161.75;;;5.41;50.21
13581;BME280;6861;46.170;7.222;2023-02-16T02:48:37;97169.94;;;5.45;50.32
13581;BME280;6861;46.170;7.222;2023-02-16T02:51:10;97170.13;;;5.37;50.11
13581;BME280;6861;46.170;7.222;2023-02-16T02:54:00;97164.94;;;5.23;50.33
13581;BME280;6861;46.170;7.222;2023-02-16T02:56:50;97174.97;;;5.13;50.86
13581;BME280;6861;46.170;7.222;2023-02-16T02:59:39;97165.59;;;5.12;50.82
13581;BME280;6861;46.170;7.222;2023-02-16T03:02:29;97160.19;;;5.14;51.05
13581;BME280;6861;46.170;7.222;2023-02-16T03:05:00;97173.75;;;5.22;50.70
13581;BME280;6861;46.170;7.222;2023-02-16T03:07:30;97171.34;;;5.27;50.25
13581;BME280;6861;46.170;7.222;2023-02-16T03:10:15;97177.72;;;5.32;50.56
13581;BME280;6861;46.170;7.222;2023-02-16T03:13:03;97167.53;;;5.43;50.54
13581;BME280;6861;46.170;7.222;2023-02-16T03:15:35;97170.91;;;5.50;50.21
13581;BME280;6861;46.170;7.222;2023-02-16T03:18:06;97170.09;;;5.56;49.70
13581;BME280;6861;46.170;7.222;2023-02-16T03:20:53;97171.69;;;5.64;49.40
13581;BME280;6861;46.170;7.222;2023-02-16T03:23:41;97179.84;;;5.74;49.16
13581;BME280;6861;46.170;7.222;2023-02-16T03:26:30;97187.25;;;5.77;49.82
13581;BME280;6861;46.170;7.222;2023-02-16T03:29:17;97173.88;;;5.67;49.87
13581;BME280;6861;46.170;7.222;2023-02-16T03:31:50;97178.09;;;5.55;49.51
13581;BME280;6861;46.170;7.222;2023-02-16T03:34:20;97184.91;;;5.43;49.87
13581;BME280;6861;46.170;7.222;2023-02-16T03:36:50;97180.91;;;5.34;50.17
13581;BME280;6861;46.170;7.222;2023-02-16T03:39:19;97176.53;;;5.27;50.43
13581;BME280;6861;46.170;7.222;2023-02-16T03:41:48;97176.34;;;5.22;50.66
13581;BME280;6861;46.170;7.222;2023-02-16T03:44:18;97172.97;;;5.15;51.10
13581;BME280;6861;46.170;7.222;2023-02-16T03:46:47;97172.97;;;5.02;50.64
13581;BME280;6861;46.170;7.222;2023-02-16T03:49:17;97180.16;;;5.00;51.12
13581;BME280;6861;46.170;7.222;2023-02-16T03:51:46;97179.97;;;5.02;51.40
13581;BME280;6861;46.170;7.222;2023-02-16T03:54:14;97186.53;;;5.11;50.95
13581;BME280;6861;46.170;7.222;2023-02-16T03:56:42;97187.75;;;5.15;50.83
13581;BME280;6861;46.170;7.222;2023-02-16T03:59:10;97179.75;;;5.16;51.03
13581;BME280;6861;46.170;7.222;2023-02-16T04:01:38;97182.34;;;5.16;50.70
13581;BME280;6861;46.170;7.222;2023-02-16T04:04:06;97174.97;;;5.13;51.20
13581;BME280;6861;46.170;7.222;2023-02-16T04:06:35;97183.31;;;5.22;51.13
13581;BME280;6861;46.170;7.222;2023-02-16T04:09:03;97188.50;;;5.28;50.93
13581;BME280;6861;46.170;7.222;2023-02-16T04:11:31;97190.09;;;5.36;50.48
13581;BME280;6861;46.170;7.222;2023-02-16T04:14:16;97194.69;;;5.41;49.99
13581;BME280;6861;46.170;7.222;2023-02-16T04:16:45;97196.47;;;5.40;50.25
13581;BME280;6861;46.170;7.222;2023-02-16T04:19:13;97197.69;;;5.38;50.10
13581;BME280;6861;46.170;7.222;2023-02-16T04:21:42;97179.94;;;5.21;50.28
13581;BME280;6861;46.170;7.222;2023-02-16T04:24:10;97189.75;;;5.13;50.98
13581;BME280;6861;46.170;7.222;2023-02-16T04:26:38;97185.34;;;5.00;51.54
13581;BME280;6861;46.170;7.222;2023-02-16T04:29:06;97205.69;;;4.90;51.76
13581;BME280;6861;46.170;7.222;2023-02-16T04:31:34;97210.88;;;4.90;51.47
13581;BME280;6861;46.170;7.222;2023-02-16T04:34:02;97216.47;;;5.00;50.98
13581;BME280;6861;46.170;7.222;2023-02-16T04:36:30;97208.28;;;5.03;50.95
13581;BME280;6861;46.170;7.222;2023-02-16T04:39:00;97209.69;;;4.99;50.65
13581;BME280;6861;46.170;7.222;2023-02-16T04:41:28;97201.50;;;4.96;51.10
13581;BME280;6861;46.170;7.222;2023-02-16T04:43:56;97203.69;;;4.92;51.48
13581;BME280;6861;46.170;7.222;2023-02-16T04:46:24;97206.88;;;4.81;51.54
13581;BME280;6861;46.170;7.222;2023-02-16T04:48:52;97203.66;;;4.79;51.87
13581;BME280;6861;46.170;7.222;2023-02-16T04:51:20;97200.47;;;4.77;51.87
13581;BME280;6861;46.170;7.222;2023-02-16T04:53:48;97194.47;;;4.70;51.97
13581;BME280;6861;46.170;7.222;2023-02-16T04:56:17;97196.88;;;4.78;51.75
13581;BME280;6861;46.170;7.222;2023-02-16T04:58:45;97203.88;;;4.84;51.72
13581;BME280;6861;46.170;7.222;2023-02-16T05:01:18;97185.91;;;4.82;51.66
13581;BME280;6861;46.170;7.222;2023-02-16T05:03:47;97194.31;;;4.98;51.37
13581;BME280;6861;46.170;7.222;2023-02-16T05:06:15;97196.13;;;5.10;51.25
13581;BME280;6861;46.170;7.222;2023-02-16T05:08:44;97198.88;;;5.22;50.80
13581;BME280;6861;46.170;7.222;2023-02-16T05:11:12;97186.72;;;5.22;50.64
13581;BME280;6861;46.170;7.222;2023-02-16T05:13:59;97196.88;;;5.31;50.80
13581;BME280;6861;46.170;7.222;2023-02-16T05:16:45;97198.88;;;5.22;51.23
13581;BME280;6861;46.170;7.222;2023-02-16T05:19:13;97197.13;;;5.16;50.90
13581;BME280;6861;46.170;7.222;2023-02-16T05:21:41;97191.53;;;4.99;51.31
13581;BME280;6861;46.170;7.222;2023-02-16T05:24:10;97195.31;;;4.90;51.85
13581;BME280;6861;46.170;7.222;2023-02-16T05:26:38;97194.47;;;4.70;52.13
13581;BME280;6861;46.170;7.222;2023-02-16T05:29:08;97201.03;;;4.59;52.37
13581;BME280;6861;46.170;7.222;2023-02-16T05:31:36;97203.56;;;4.39;53.02
13581;BME280;6861;46.170;7.222;2023-02-16T05:34:04;97205.94;;;4.27;53.21
13581;BME280;6861;46.170;7.222;2023-02-16T05:36:32;97206.34;;;4.24;53.07
13581;BME280;6861;46.170;7.222;2023-02-16T05:39:00;97210.31;;;4.20;53.20
13581;BME280;6861;46.170;7.222;2023-02-16T05:41:28;97213.06;;;4.12;53.29
13581;BME280;6861;46.170;7.222;2023-02-16T05:43:58;97207.06;;;4.05;53.44
13581;BME280;6861;46.170;7.222;2023-02-16T05:46:30;97213.03;;;4.06;53.44
13581;BME280;6861;46.170;7.222;2023-02-16T05:48:59;97199.47;;;4.04;53.81
13581;BME280;6861;46.170;7.222;2023-02-16T05:51:28;97201.44;;;3.95;53.60
13581;BME280;6861;46.170;7.222;2023-02-16T05:53:56;97214.16;;;3.90;53.73
13581;BME280;6861;46.170;7.222;2023-02-16T05:56:24;97208.16;;;3.89;53.89
13581;BME280;6861;46.170;7.222;2023-02-16T05:58:52;97210.75;;;3.89;53.44
13581;BME280;6861;46.170;7.222;2023-02-16T06:01:21;97207.19;;;3.90;53.94
13581;BME280;6861;46.170;7.222;2023-02-16T06:03:50;97212.59;;;3.95;53.88
13581;BME280;6861;46.170;7.222;2023-02-16T06:06:18;97215.78;;;3.98;53.97
13581;BME280;6861;46.170;7.222;2023-02-16T06:08:47;97219.41;;;4.03;53.63
13581;BME280;6861;46.170;7.222;2023-02-16T06:11:15;97220.22;;;4.10;53.99
13581;BME280;6861;46.170;7.222;2023-02-16T06:14:01;97209.50;;;4.20;53.48
13581;BME280;6861;46.170;7.222;2023-02-16T06:16:30;97221.09;;;4.31;53.03
13581;BME280;6861;46.170;7.222;2023-02-16T06:19:00;97207.16;;;4.38;52.85
13581;BME280;6861;46.170;7.222;2023-02-16T06:21:29;97218.94;;;4.47;52.58
13581;BME280;6861;46.170;7.222;2023-02-16T06:23:57;97223.13;;;4.48;52.56
13581;BME280;6861;46.170;7.222;2023-02-16T06:26:26;97221.72;;;4.46;52.57
13581;BME280;6861;46.170;7.222;2023-02-16T06:28:54;97218.72;;;4.42;52.74
13581;BME280;6861;46.170;7.222;2023-02-16T06:31:22;97217.53;;;4.38;52.69
13581;BME280;6861;46.170;7.222;2023-02-16T06:33:52;97217.94;;;4.42;52.41
13581;BME280;6861;46.170;7.222;2023-02-16T06:36:22;97229.91;;;4.49;52.73
13581;BME280;6861;46.170;7.222;2023-02-16T06:38:51;97229.91;;;4.43;52.45
13581;BME280;6861;46.170;7.222;2023-02-16T06:41:19;97233.66;;;4.40;52.81
13581;BME280;6861;46.170;7.222;2023-02-16T06:44:01;97235.06;;;4.36;53.15
13581;BME280;6861;46.170;7.222;2023-02-16T06:46:30;97242.63;;;4.38;52.61
13581;BME280;6861;46.170;7.222;2023-02-16T06:48:58;97245.03;;;4.39;52.80
13581;BME280;6861;46.170;7.222;2023-02-16T06:51:28;97249.81;;;4.36;52.87
13581;BME280;6861;46.170;7.222;2023-02-16T06:59:20;97243.78;;;4.22;52.97
13581;BME280;6861;46.170;7.222;2023-02-16T07:01:48;97248.38;;;4.20;53.70
13581;BME280;6861;46.170;7.222;2023-02-16T07:04:16;97255.16;;;4.21;53.34
13581;BME280;6861;46.170;7.222;2023-02-16T07:06:45;97256.97;;;4.27;53.23
13581;BME280;6861;46.170;7.222;2023-02-16T07:09:13;97255.00;;;4.29;52.97
13581;BME280;6861;46.170;7.222;2023-02-16T07:11:41;97261.75;;;4.37;53.19
13581;BME280;6861;46.170;7.222;2023-02-16T07:14:09;97262.19;;;4.40;53.03
13581;BME280;6861;46.170;7.222;2023-02-16T07:16:37;97266.59;;;4.46;52.97
13581;BME280;6861;46.170;7.222;2023-02-16T07:19:05;97268.19;;;4.47;53.09
13581;BME280;6861;46.170;7.222;2023-02-16T07:21:34;97262.00;;;4.48;52.75
13581;BME280;6861;46.170;7.222;2023-02-16T07:24:03;97266.19;;;4.49;53.05
13581;BME280;6861;46.170;7.222;2023-02-16T07:26:32;97264.81;;;4.53;52.87
13581;BME280;6861;46.170;7.222;2023-02-16T07:29:00;97271.44;;;4.63;53.13
13581;BME280;6861;46.170;7.222;2023-02-16T07:31:28;97274.84;;;4.70;52.69
13581;BME280;6861;46.170;7.222;2023-02-16T07:33:56;97278.03;;;4.72;52.77
13581;BME280;6861;46.170;7.222;2023-02-16T07:36:24;97284.28;;;4.84;52.34
13581;BME280;6861;46.170;7.222;2023-02-16T07:38:52;97284.47;;;4.89;52.37
13581;BME280;6861;46.170;7.222;2023-02-16T07:41:22;97279.50;;;4.94;52.25
13581;BME280;6861;46.170;7.222;2023-02-16T07:43:49;97276.53;;;4.97;51.88
13581;BME280;6861;46.170;7.222;2023-02-16T07:46:18;97277.13;;;4.99;52.11
13581;BME280;6861;46.170;7.222;2023-02-16T07:48:46;97279.53;;;5.07;51.93
13581;BME280;6861;46.170;7.222;2023-02-16T07:51:20;97285.53;;;5.14;51.80
13581;BME280;6861;46.170;7.222;2023-02-16T07:53:48;97279.53;;;5.07;51.95
13581;BME280;6861;46.170;7.222;2023-02-16T07:56:20;97282.91;;;5.01;51.84
13581;BME280;6861;46.170;7.222;2023-02-16T07:58:50;97282.09;;;4.94;51.94
13581;BME280;6861;46.170;7.222;2023-02-16T08:01:18;97283.06;;;4.86;52.10
13581;BME280;6861;46.170;7.222;2023-02-16T08:03:46;97282.25;;;4.79;52.40
13581;BME280;6861;46.170;7.222;2023-02-16T08:06:15;97287.03;;;4.76;52.36
13581;BME280;6861;46.170;7.222;2023-02-16T08:08:43;97285.81;;;4.72;52.38
13581;BME280;6861;46.170;7.222;2023-02-16T08:11:14;97287.84;;;4.76;52.04
13581;BME280;6861;46.170;7.222;2023-02-16T08:13:42;97288.25;;;4.80;52.51
13581;BME280;6861;46.170;7.222;2023-02-16T08:16:13;97286.25;;;4.82;52.07
13581;BME280;6861;46.170;7.222;2023-02-16T08:18:42;97283.06;;;4.86;51.70
13581;BME280;6861;46.170;7.222;2023-02-16T08:21:15;97290.28;;;4.91;52.16
13581;BME280;6861;46.170;7.222;2023-02-16T08:23:45;97288.31;;;5.00;51.61
13581;BME280;6861;46.170;7.222;2023-02-16T08:26:15;97285.53;;;5.14;51.31
13581;BME280;6861;46.170;7.222;2023-02-16T08:28:44;97286.31;;;5.21;51.32
13581;BME280;6861;46.170;7.222;2023-02-16T08:31:14;97286.31;;;5.21;51.30
13581;BME280;6861;46.170;7.222;2023-02-16T08:33:45;97289.13;;;5.26;50.91
13581;BME280;6861;46.170;7.222;2023-02-16T08:36:17;97282.75;;;5.36;51.19
13581;BME280;6861;46.170;7.222;2023-02-16T08:38:46;97280.34;;;5.41;51.07
13581;BME280;6861;46.170;7.222;2023-02-16T08:41:16;97291.94;;;5.58;50.68
13581;BME280;6861;46.170;7.222;2023-02-16T08:43:44;97290.34;;;5.57;50.37
13581;BME280;6861;46.170;7.222;2023-02-16T08:46:14;97290.34;;;5.70;50.67
13581;BME280;6861;46.170;7.222;2023-02-16T08:48:43;97298.72;;;5.72;50.64
13581;BME280;6861;46.170;7.222;2023-02-16T08:51:13;97291.72;;;5.73;50.02
13581;BME280;6861;46.170;7.222;2023-02-16T08:53:41;97285.13;;;5.70;50.19
13581;BME280;6861;46.170;7.222;2023-02-16T08:56:10;97285.72;;;5.72;50.11
13581;BME280;6861;46.170;7.222;2023-02-16T08:58:38;97284.72;;;5.73;50.52
13581;BME280;6861;46.170;7.222;2023-02-16T09:01:07;97289.53;;;5.76;49.91
13581;BME280;6861;46.170;7.222;2023-02-16T09:03:37;97292.13;;;5.76;50.23
13581;BME280;6861;46.170;7.222;2023-02-16T09:06:07;97290.31;;;5.77;50.42
13581;BME280;6861;46.170;7.222;2023-02-16T09:08:36;97272.34;;;5.75;49.52
13581;BME280;6861;46.170;7.222;2023-02-16T09:11:05;97284.31;;;5.83;50.01
13581;BME280;6861;46.170;7.222;2023-02-16T09:13:35;97278.16;;;5.90;49.85
13581;BME280;6861;46.170;7.222;2023-02-16T09:16:05;97277.34;;;5.97;49.88
13581;BME280;6861;46.170;7.222;2023-02-16T09:18:33;97285.28;;;6.08;49.89
13581;BME280;6861;46.170;7.222;2023-02-16T09:21:05;97282.47;;;6.16;49.37
13581;BME280;6861;46.170;7.222;2023-02-16T09:23:36;97280.88;;;6.22;49.34
13581;BME280;6861;46.170;7.222;2023-02-16T09:26:07;97277.84;;;6.25;50.06
13581;BME280;6861;46.170;7.222;2023-02-16T09:28:36;97277.44;;;6.28;49.59
13581;BME280;6861;46.170;7.222;2023-02-16T09:31:08;97274.47;;;6.24;49.11
13581;BME280;6861;46.170;7.222;2023-02-16T09:33:37;97274.63;;;6.30;49.33
13581;BME280;6861;46.170;7.222;2023-02-16T09:36:10;97267.84;;;6.29;49.56
13581;BME280;6861;46.170;7.222;2023-02-16T09:38:39;97271.84;;;6.31;49.86
13581;BME280;6861;46.170;7.222;2023-02-16T09:41:10;97275.63;;;6.35;49.62
13581;BME280;6861;46.170;7.222;2023-02-16T09:43:44;97276.63;;;6.34;49.29
13581;BME280;6861;46.170;7.222;2023-02-16T09:46:17;97271.84;;;6.31;49.29
13581;BME280;6861;46.170;7.222;2023-02-16T09:48:48;97274.63;;;6.36;49.90
13581;BME280;6861;46.170;7.222;2023-02-16T09:51:23;97262.19;;;6.45;49.46
13581;BME280;6861;46.170;7.222;2023-02-16T09:54:09;97273.16;;;6.53;48.85
13581;BME280;6861;46.170;7.222;2023-02-16T09:56:46;97275.53;;;6.62;49.66
13581;BME280;6861;46.170;7.222;2023-02-16T09:59:26;97268.91;;;6.66;48.32
13581;BME280;6861;46.170;7.222;2023-02-16T10:02:28;97255.72;;;6.61;48.52
13581;BME280;6861;46.170;7.222;2023-02-16T10:05:12;97261.09;;;6.66;48.81
13581;BME280;6861;46.170;7.222;2023-02-16T10:07:53;97251.28;;;6.68;49.02
13581;BME280;6861;46.170;7.222;2023-02-16T10:10:24;97256.09;;;6.64;48.63
13581;BME280;6861;46.170;7.222;2023-02-16T10:12:58;97242.91;;;6.66;49.44
13581;BME280;6861;46.170;7.222;2023-02-16T10:15:29;97251.66;;;6.71;48.97
13581;BME280;6861;46.170;7.222;2023-02-16T10:18:02;97252.44;;;6.78;49.64
13581;BME280;6861;46.170;7.222;2023-02-16T10:20:33;97245.59;;;6.84;49.07
13581;BME280;6861;46.170;7.222;2023-02-16T10:23:07;97237.97;;;6.89;48.71
13581;BME280;6861;46.170;7.222;2023-02-16T10:25:42;97238.19;;;7.12;48.86
13581;BME280;6861;46.170;7.222;2023-02-16T10:28:15;97237.47;;;7.55;49.28
13581;BME280;6861;46.170;7.222;2023-02-16T10:30:50;97237.25;;;8.36;49.63
13581;BME280;6861;46.170;7.222;2023-02-16T10:33:30;97239.94;;;9.54;48.05
13581;BME280;6861;46.170;7.222;2023-02-16T10:36:14;97237.50;;;10.75;46.74
13581;BME280;6861;46.170;7.222;2023-02-16T10:38:50;97230.72;;;11.74;45.79
13581;BME280;6861;46.170;7.222;2023-02-16T10:41:28;97220.47;;;12.55;44.71
13581;BME280;6861;46.170;7.222;2023-02-16T10:44:01;97223.81;;;13.26;43.21
13581;BME280;6861;46.170;7.222;2023-02-16T10:46:32;97217.59;;;13.74;42.32
13581;BME280;6861;46.170;7.222;2023-02-16T10:49:03;97220.16;;;14.17;41.75
13581;BME280;6861;46.170;7.222;2023-02-16T10:51:36;97216.38;;;14.45;40.57
13581;BME280;6861;46.170;7.222;2023-02-16T10:54:11;97212.47;;;14.57;39.46
13581;BME280;6861;46.170;7.222;2023-02-16T10:56:47;97207.50;;;14.66;39.32
13581;BME280;6861;46.170;7.222;2023-02-16T10:59:20;97206.94;;;14.74;38.77
13581;BME280;6861;46.170;7.222;2023-02-16T11:01:50;97210.66;;;14.78;38.37
13581;BME280;6861;46.170;7.222;2023-02-16T11:04:31;97200.13;;;14.83;37.43
13581;BME280;6861;46.170;7.222;2023-02-16T11:07:04;97199.06;;;14.84;37.54
13581;BME280;6861;46.170;7.222;2023-02-16T11:09:36;97203.81;;;14.92;36.94
13581;BME280;6861;46.170;7.222;2023-02-16T11:12:14;97193.03;;;14.94;36.39
13581;BME280;6861;46.170;7.222;2023-02-16T11:14:48;97192.22;;;14.98;36.10
13581;BME280;6861;46.170;7.222;2023-02-16T11:17:19;97187.50;;;15.00;35.82
13581;BME280;6861;46.170;7.222;2023-02-16T11:19:51;97184.31;;;14.98;35.43
13581;BME280;6861;46.170;7.222;2023-02-16T11:22:29;97183.78;;;14.96;35.23
13581;BME280;6861;46.170;7.222;2023-02-16T11:27:52;97176.94;;;14.90;35.14
13581;BME280;6861;46.170;7.222;2023-02-16T11:30:28;97170.59;;;14.86;35.26
13581;BME280;6861;46.170;7.222;2023-02-16T11:32:59;97166.66;;;14.84;35.26
13581;BME280;6861;46.170;7.222;2023-02-16T11:35:30;97154.25;;;14.79;34.67
13581;BME280;6861;46.170;7.222;2023-02-16T11:37:58;97153.19;;;14.75;34.85
13581;BME280;6861;46.170;7.222;2023-02-16T11:40:28;97156.13;;;14.68;34.90
13581;BME280;6861;46.170;7.222;2023-02-16T11:43:00;97150.56;;;14.60;34.48
13581;BME280;6861;46.170;7.222;2023-02-16T11:45:30;97145.28;;;14.50;34.15
13581;BME280;6861;46.170;7.222;2023-02-16T11:48:03;97142.06;;;14.37;34.32
13581;BME280;6861;46.170;7.222;2023-02-16T11:50:33;97130.69;;;14.27;34.04
13581;BME280;6861;46.170;7.222;2023-02-16T11:53:14;97123.53;;;14.12;33.96
13581;BME280;6861;46.170;7.222;2023-02-16T11:55:44;97120.34;;;14.00;34.12
13581;BME280;6861;46.170;7.222;2023-02-16T11:58:16;97121.88;;;13.91;33.93
13581;BME280;6861;46.170;7.222;2023-02-16T12:00:58;97121.34;;;13.84;34.50
13581;BME280;6861;46.170;7.222;2023-02-16T12:03:42;97114.47;;;13.72;34.36
13581;BME280;6861;46.170;7.222;2023-02-16T12:06:26;97108.34;;;13.62;34.24
13581;BME280;6861;46.170;7.222;2023-02-16T12:09:06;97106.44;;;13.47;34.46
13581;BME280;6861;46.170;7.222;2023-02-16T12:11:41;97096.91;;;13.36;34.25
13581;BME280;6861;46.170;7.222;2023-02-16T12:14:23;97092.13;;;13.28;33.93
13581;BME280;6861;46.170;7.222;2023-02-16T12:16:57;97086.59;;;13.24;34.07
13581;BME280;6861;46.170;7.222;2023-02-16T12:19:37;97089.47;;;13.23;34.78
13581;BME280;6861;46.170;7.222;2023-02-16T12:22:18;97091.59;;;13.26;34.14
13581;BME280;6861;46.170;7.222;2023-02-16T12:24:59;97079.44;;;13.20;34.51
13581;BME280;6861;46.170;7.222;2023-02-16T12:27:32;97084.22;;;13.23;34.74
13581;BME280;6861;46.170;7.222;2023-02-16T12:30:22;97071.59;;;13.25;34.57
13581;BME280;6861;46.170;7.222;2023-02-16T12:33:01;97078.97;;;13.28;35.25
13581;BME280;6861;46.170;7.222;2023-02-16T12:35:59;97067.44;;;13.34;34.18
13581;BME280;6861;46.170;7.222;2023-02-16T12:38:40;97059.59;;;13.39;34.04
13581;BME280;6861;46.170;7.222;2023-02-16T12:41:24;97050.41;;;13.41;34.95
13581;BME280;6861;46.170;7.222;2023-02-16T12:43:58;97045.16;;;13.47;34.40
13581;BME280;6861;46.170;7.222;2023-02-16T12:46:37;97051.53;;;13.56;35.17
13581;BME280;6861;46.170;7.222;2023-02-16T12:49:12;97048.13;;;13.60;34.54
13581;BME280;6861;46.170;7.222;2023-02-16T12:51:47;97048.69;;;13.67;34.78
13581;BME280;6861;46.170;7.222;2023-02-16T12:54:19;97043.97;;;13.74;34.31
13581;BME280;6861;46.170;7.222;2023-02-16T12:56:52;97049.78;;;13.82;33.97
13581;BME280;6861;46.170;7.222;2023-02-16T12:59:24;97035.84;;;13.86;33.95
13581;BME280;6861;46.170;7.222;2023-02-16T13:01:59;97029.50;;;13.87;33.82
13581;BME280;6861;46.170;7.222;2023-02-16T13:04:37;97024.78;;;13.89;33.79
13581;BME280;6861;46.170;7.222;2023-02-16T13:07:13;97022.97;;;13.95;33.67
13581;BME280;6861;46.170;7.222;2023-02-16T13:09:51;97017.72;;;14.00;33.69
13581;BME280;6861;46.170;7.222;2023-02-16T13:12:27;97008.78;;;14.06;34.30
13581;BME280;6861;46.170;7.222;2023-02-16T13:15:04;97013.78;;;14.13;33.64
13581;BME280;6861;46.170;7.222;2023-02-16T13:17:39;97009.56;;;14.17;34.13
13581;BME280;6861;46.170;7.222;2023-02-16T13:20:12;97010.38;;;14.22;34.18
13581;BME280;6861;46.170;7.222;2023-02-16T13:22:52;97003.28;;;14.28;33.92
13581;BME280;6861;46.170;7.222;2023-02-16T13:25:55;96992.75;;;14.33;33.95
13581;BME280;6861;46.170;7.222;2023-02-16T13:28:37;96985.63;;;14.38;34.27
13581;BME280;6861;46.170;7.222;2023-02-16T13:31:17;96988.31;;;14.43;33.57
13581;BME280;6861;46.170;7.222;2023-02-16T13:34:04;96991.72;;;14.49;33.44
13581;BME280;6861;46.170;7.222;2023-02-16T13:36:50;96989.88;;;14.55;33.78
13581;BME280;6861;46.170;7.222;2023-02-16T13:42:59;96974.06;;;14.65;33.62
13581;BME280;6861;46.170;7.222;2023-02-16T13:45:33;96971.97;;;14.72;33.81
13581;BME280;6861;46.170;7.222;2023-02-16T13:48:12;96969.81;;;14.79;33.22
13581;BME280;6861;46.170;7.222;2023-02-16T13:50:43;96957.16;;;14.81;33.38
13581;BME280;6861;46.170;7.222;2023-02-16T13:53:19;96966.09;;;14.90;32.68
13581;BME280;6861;46.170;7.222;2023-02-16T13:55:48;96956.06;;;14.92;33.11
13581;BME280;6861;46.170;7.222;2023-02-16T13:58:30;96959.22;;;14.99;32.69
13581;BME280;6861;46.170;7.222;2023-02-16T14:01:36;96954.19;;;15.03;32.30
13581;BME280;6861;46.170;7.222;2023-02-16T14:04:11;96952.34;;;15.08;32.59
13581;BME280;6861;46.170;7.222;2023-02-16T14:06:41;96960.75;;;15.16;32.11